Big Falls, Wisconsin
Current Conditions -  °F | °C
As of 9:15 AM on Thursday 18 Dec 2014 (Local Time) from KCLI Reporting Station
Overcast Overcast  
Wind Chill: 16°   Ceiling: 1600
Heat Index: 27°   Visibility: 10mi
Dew Point: 19°   Wind: 12mph
Humidity: 74%   Direction: 70°ENE
Pressure: 30.29"   Gusts: NA
Location:  44.62°N, 89.02°W
Report Text: KCLI 181515Z AUTO 07010KT 10SM OVC016 M03/M07 A3029 RMK AO2
Loading
Personal Weather Stations






























Interactive Weather Map New forecast layout! Learn more

10-Day Weather Forecast

Advertisements
Track Severe Weather on mobile